Time;durP1;ratioP1;P1;durP2;ratioP2;P2;SDS_P1;SDS_P2;PMS_P1;PMS_P2;Temp;Humidity;BMP_temperature;BMP_pressure;BME280_temperature;BME280_humidity;BME280_pressure;Samples;Min_cycle;Max_cycle;Signal;HPM_P1;HPM_P2
2024/01/25 00:00:03;;;;;;;1.30;1.10;;;11.80;40.20;;;;;;5094148;28;20187;-54
2024/01/25 00:02:29;;;;;;;0.90;0.40;;;11.70;40.70;;;;;;5093636;28;20674;-48
2024/01/25 00:04:54;;;;;;;1.97;1.23;;;11.70;40.50;;;;;;5094188;28;20255;-53
2024/01/25 00:07:20;;;;;;;0.90;0.40;;;11.80;40.60;;;;;;5093830;28;20183;-47
2024/01/25 00:09:46;;;;;;;1.80;0.88;;;11.90;40.30;;;;;;5093845;28;20196;-49
2024/01/25 00:12:12;;;;;;;1.40;0.80;;;12.00;39.80;;;;;;5093667;28;20191;-54
2024/01/25 00:14:37;;;;;;;1.00;0.87;;;11.90;40.40;;;;;;5093588;28;20636;-46
2024/01/25 00:17:04;;;;;;;1.30;0.90;;;12.00;40.00;;;;;;5093816;28;20188;-46
2024/01/25 00:19:29;;;;;;;0.90;0.40;;;12.00;40.00;;;;;;5093879;28;20546;-52
2024/01/25 00:21:55;;;;;;;4.90;1.30;;;12.10;40.00;;;;;;5093299;28;20168;-47
2024/01/25 00:24:21;;;;;;;1.00;0.60;;;12.00;39.90;;;;;;5093490;28;20200;-54
2024/01/25 00:26:47;;;;;;;0.90;0.40;;;12.00;39.80;;;;;;5093593;28;20168;-53
2024/01/25 00:29:12;;;;;;;0.93;0.50;;;11.90;40.10;;;;;;5093568;28;20168;-46
2024/01/25 00:31:38;;;;;;;1.03;0.83;;;11.90;40.10;;;;;;5093256;28;20183;-44
2024/01/25 00:34:04;;;;;;;1.50;1.07;;;11.80;40.30;;;;;;5093142;28;20677;-54
2024/01/25 00:36:30;;;;;;;1.00;0.70;;;11.80;40.30;;;;;;5093133;28;20173;-46
2024/01/25 00:38:56;;;;;;;0.98;0.57;;;11.80;40.60;;;;;;5093440;28;20187;-52
2024/01/25 00:41:23;;;;;;;2.70;0.80;;;11.90;40.40;;;;;;5093156;28;20176;-52
2024/01/25 00:43:49;;;;;;;2.05;1.95;;;12.00;39.80;;;;;;5093153;28;20438;-48
2024/01/25 00:46:15;;;;;;;1.27;0.70;;;12.10;39.60;;;;;;5093149;28;20180;-47
2024/01/25 00:48:42;;;;;;;12.20;1.50;;;12.10;39.50;;;;;;5092957;28;20418;-49
2024/01/25 00:51:14;;;;;;;3.40;1.98;;;12.20;39.30;;;;;;5092661;28;20195;-52
2024/01/25 00:53:40;;;;;;;1.40;0.75;;;12.30;38.90;;;;;;5092819;28;20235;-46
2024/01/25 00:56:07;;;;;;;15.13;1.00;;;12.10;39.20;;;;;;5093003;28;20633;-52
2024/01/25 00:58:32;;;;;;;0.90;0.45;;;12.00;39.40;;;;;;5092747;28;21022;-47
2024/01/25 01:00:58;;;;;;;1.00;0.73;;;12.10;39.30;;;;;;5092234;28;20275;-52
2024/01/25 01:03:24;;;;;;;1.70;1.13;;;12.10;39.30;;;;;;5091965;28;20477;-46
2024/01/25 01:05:50;;;;;;;1.17;1.00;;;12.10;39.30;;;;;;5092608;28;20555;-52
2024/01/25 01:08:16;;;;;;;1.67;0.63;;;12.00;39.10;;;;;;5092777;28;20421;-51
2024/01/25 01:10:42;;;;;;;1.20;0.70;;;12.10;39.30;;;;;;5092385;28;20968;-47
2024/01/25 01:13:08;;;;;;;0.93;0.50;;;12.20;38.70;;;;;;5092513;28;20342;-51
2024/01/25 01:15:33;;;;;;;4.90;1.27;;;12.10;39.70;;;;;;5092479;28;20172;-49
2024/01/25 01:17:59;;;;;;;3.10;1.10;;;11.90;39.50;;;;;;5092621;28;20165;-49
2024/01/25 01:20:25;;;;;;;1.17;0.70;;;11.90;39.70;;;;;;5092358;28;20179;-53
2024/01/25 01:22:52;;;;;;;1.00;0.47;;;12.00;39.30;;;;;;5092488;28;20720;-47
2024/01/25 01:25:18;;;;;;;4.22;2.30;;;12.10;39.30;;;;;;5092591;28;20199;-49
2024/01/25 01:27:43;;;;;;;1.03;0.60;;;11.90;39.50;;;;;;5092259;28;20172;-51
2024/01/25 01:30:10;;;;;;;2.53;1.10;;;11.90;39.40;;;;;;5092370;28;20422;-47
2024/01/25 01:32:35;;;;;;;7.45;0.80;;;11.90;39.50;;;;;;5091773;28;20216;-48
2024/01/25 01:35:01;;;;;;;1.00;0.77;;;11.90;39.60;;;;;;5092219;28;20327;-52
2024/01/25 01:37:27;;;;;;;2.80;1.13;;;11.90;39.60;;;;;;5092212;28;20169;-48
2024/01/25 01:39:55;;;;;;;3.03;0.53;;;12.00;39.50;;;;;;5092184;28;20172;-46
2024/01/25 01:42:21;;;;;;;0.90;0.38;;;12.10;39.30;;;;;;5091890;28;20187;-52
2024/01/25 01:44:49;;;;;;;1.58;1.45;;;12.20;39.00;;;;;;5083934;28;20164;-53
2024/01/25 01:47:15;;;;;;;2.00;1.27;;;12.10;38.80;;;;;;5092155;28;20168;-45
2024/01/25 01:49:42;;;;;;;1.20;0.70;;;12.10;39.10;;;;;;5092050;28;20176;-52
2024/01/25 01:52:08;;;;;;;1.00;0.70;;;12.00;39.10;;;;;;5092005;28;20180;-45
2024/01/25 01:54:34;;;;;;;4.32;1.58;;;11.90;39.30;;;;;;5092007;28;20271;-52
2024/01/25 01:57:02;;;;;;;0.90;0.47;;;11.90;39.30;;;;;;5092044;28;20259;-49
2024/01/25 01:59:29;;;;;;;2.78;0.82;;;11.80;39.70;;;;;;5091926;28;20487;-48
2024/01/25 02:01:54;;;;;;;2.42;1.20;;;11.70;39.80;;;;;;5091670;28;20255;-46
2024/01/25 02:04:20;;;;;;;1.00;0.70;;;11.90;39.60;;;;;;5090479;28;20406;-54
2024/01/25 02:06:46;;;;;;;1.67;1.57;;;11.90;39.40;;;;;;5091971;28;20428;-50
2024/01/25 02:09:13;;;;;;;4.33;1.20;;;12.00;39.10;;;;;;5091826;28;20514;-46
2024/01/25 02:11:38;;;;;;;7.72;1.33;;;12.00;39.10;;;;;;5091744;28;20533;-50
2024/01/25 02:14:05;;;;;;;1.00;0.70;;;12.00;39.30;;;;;;5094422;28;20240;-46
2024/01/25 02:16:30;;;;;;;1.85;1.40;;;11.90;39.10;;;;;;5095799;28;20197;-53
2024/01/25 02:18:57;;;;;;;2.30;1.33;;;11.90;39.10;;;;;;5095928;28;20267;-53
2024/01/25 02:21:23;;;;;;;1.35;0.93;;;11.80;39.30;;;;;;5095602;28;20184;-49
2024/01/25 02:23:50;;;;;;;1.20;0.90;;;11.80;39.30;;;;;;5095915;28;20206;-51
2024/01/25 02:26:16;;;;;;;1.00;0.75;;;11.90;39.60;;;;;;5094699;28;20433;-54
2024/01/25 02:28:41;;;;;;;1.30;1.17;;;11.80;39.10;;;;;;5095816;28;20637;-47
2024/01/25 02:31:07;;;;;;;5.60;1.03;;;11.80;39.50;;;;;;5095435;28;20168;-47
2024/01/25 02:33:33;;;;;;;5.33;2.80;;;11.70;39.20;;;;;;5095295;28;20216;-55
2024/01/25 02:35:59;;;;;;;2.37;1.20;;;11.60;39.50;;;;;;5095666;28;20184;-54
2024/01/25 02:38:24;;;;;;;1.10;0.93;;;11.70;39.60;;;;;;5095577;28;20203;-46
2024/01/25 02:40:50;;;;;;;1.00;0.83;;;11.80;39.40;;;;;;5095097;28;20172;-52
2024/01/25 02:43:16;;;;;;;1.10;1.00;;;11.90;39.10;;;;;;5095432;28;20434;-51
2024/01/25 02:45:42;;;;;;;1.10;0.73;;;12.00;39.10;;;;;;5095235;28;20498;-47
2024/01/25 02:48:07;;;;;;;1.10;0.67;;;12.00;38.80;;;;;;5095612;28;20176;-50
2024/01/25 02:50:33;;;;;;;2.80;1.03;;;12.00;39.00;;;;;;5095605;28;20172;-50
2024/01/25 02:52:59;;;;;;;1.00;0.73;;;11.90;38.90;;;;;;5094871;28;20283;-48
2024/01/25 02:55:25;;;;;;;2.00;1.80;;;11.90;39.20;;;;;;5095417;28;20216;-48
2024/01/25 02:57:50;;;;;;;4.27;1.27;;;11.90;39.00;;;;;;5095299;28;20710;-51
2024/01/25 03:00:16;;;;;;;1.83;1.47;;;11.80;39.20;;;;;;5095128;28;20616;-53
2024/01/25 03:02:42;;;;;;;9.63;1.90;;;11.90;39.30;;;;;;5094389;28;20569;-48
2024/01/25 03:05:08;;;;;;;6.37;2.23;;;11.80;39.30;;;;;;5095109;28;20176;-52
2024/01/25 03:07:33;;;;;;;1.00;0.47;;;11.70;39.50;;;;;;5095279;28;20200;-48
2024/01/25 03:09:59;;;;;;;1.40;0.90;;;11.70;39.40;;;;;;5095033;28;20177;-47
2024/01/25 03:12:25;;;;;;;2.07;0.90;;;11.70;39.70;;;;;;5094513;28;20433;-51
2024/01/25 03:14:51;;;;;;;1.63;0.70;;;11.80;39.30;;;;;;5094748;28;20552;-53
2024/01/25 03:17:17;;;;;;;4.00;1.33;;;11.80;39.40;;;;;;5094916;28;20164;-47
2024/01/25 03:19:42;;;;;;;10.13;1.53;;;11.90;39.30;;;;;;5094803;28;20407;-46
2024/01/25 03:22:08;;;;;;;1.00;0.70;;;11.80;39.20;;;;;;5094253;28;20407;-52
2024/01/25 03:24:38;;;;;;;1.10;0.80;;;11.80;39.30;;;;;;5093292;28;20227;-47
2024/01/25 03:27:04;;;;;;;3.65;1.00;;;11.70;39.40;;;;;;5094744;28;20183;-47
2024/01/25 03:29:31;;;;;;;1.27;1.00;;;11.70;39.50;;;;;;5094489;28;20259;-52
2024/01/25 03:31:57;;;;;;;3.95;1.38;;;11.60;39.50;;;;;;5093968;28;20267;-47
2024/01/25 03:34:23;;;;;;;9.30;1.00;;;11.60;39.50;;;;;;5094236;28;20294;-51
2024/01/25 03:36:50;;;;;;;2.05;1.50;;;11.70;39.40;;;;;;5094585;28;20580;-48
2024/01/25 03:39:17;;;;;;;3.55;2.17;;;11.70;39.20;;;;;;5094573;28;20233;-46
2024/01/25 03:41:42;;;;;;;14.13;1.42;;;11.70;39.30;;;;;;5094082;28;20236;-53
2024/01/25 03:44:08;;;;;;;1.27;1.17;;;11.80;38.70;;;;;;5094293;28;20677;-53
2024/01/25 03:46:34;;;;;;;4.83;0.70;;;11.90;38.90;;;;;;5094625;28;20172;-47
2024/01/25 03:48:59;;;;;;;0.90;0.37;;;11.80;38.30;;;;;;5094361;28;20181;-45
2024/01/25 03:51:26;;;;;;;1.20;0.80;;;11.90;38.70;;;;;;5093676;28;20176;-51
2024/01/25 03:53:52;;;;;;;1.10;0.80;;;11.90;38.60;;;;;;5094216;28;20201;-53
2024/01/25 03:56:18;;;;;;;0.90;0.40;;;12.00;38.40;;;;;;5094402;28;20180;-49
2024/01/25 03:58:45;;;;;;;6.33;1.00;;;12.00;38.50;;;;;;5094090;28;20172;-44
2024/01/25 04:01:10;;;;;;;1.23;1.05;;;12.00;38.50;;;;;;5093547;28;20258;-49
2024/01/25 04:03:36;;;;;;;5.27;2.50;;;11.90;38.10;;;;;;5093847;28;20200;-52
2024/01/25 04:06:02;;;;;;;6.50;2.20;;;11.80;38.50;;;;;;5094017;28;20172;-47
2024/01/25 04:08:28;;;;;;;15.47;1.03;;;11.70;38.70;;;;;;5093891;28;20168;-47
2024/01/25 04:10:53;;;;;;;2.10;1.63;;;11.70;38.80;;;;;;5093536;28;20634;-51
2024/01/25 04:13:19;;;;;;;2.67;1.47;;;11.80;38.80;;;;;;5093673;28;20661;-51
2024/01/25 04:15:45;;;;;;;4.20;2.30;;;11.80;38.80;;;;;;5093689;28;20187;-45
2024/01/25 04:18:10;;;;;;;2.10;1.33;;;11.80;38.70;;;;;;5093761;28;20176;-49
2024/01/25 04:20:36;;;;;;;3.73;1.90;;;11.60;38.80;;;;;;5093065;28;20634;-54
2024/01/25 04:23:02;;;;;;;1.00;0.60;;;11.60;39.10;;;;;;5093576;28;20199;-47
2024/01/25 04:25:28;;;;;;;6.10;1.10;;;11.50;39.00;;;;;;5093358;28;20649;-47
2024/01/25 04:27:53;;;;;;;3.73;2.20;;;11.60;39.10;;;;;;5093460;28;20180;-52
2024/01/25 04:30:19;;;;;;;1.33;1.20;;;11.60;39.00;;;;;;5093425;28;20261;-54
2024/01/25 04:32:45;;;;;;;0.97;0.50;;;11.60;38.80;;;;;;5092607;28;20273;-47
2024/01/25 04:35:11;;;;;;;6.23;2.77;;;11.60;39.10;;;;;;5093215;28;20637;-50
2024/01/25 04:37:36;;;;;;;7.60;1.17;;;11.60;38.80;;;;;;5093004;28;20181;-51
2024/01/25 04:40:03;;;;;;;7.73;2.23;;;11.50;38.80;;;;;;5093239;28;20168;-47
2024/01/25 04:42:28;;;;;;;1.08;0.47;;;11.50;39.00;;;;;;5091658;28;20436;-46
2024/01/25 04:44:54;;;;;;;2.03;1.93;;;11.70;38.80;;;;;;5093202;28;20172;-49
2024/01/25 04:47:20;;;;;;;1.10;0.60;;;11.70;38.70;;;;;;5093123;28;20183;-46
2024/01/25 04:49:46;;;;;;;1.23;0.77;;;11.80;38.40;;;;;;5093103;28;20260;-50
2024/01/25 04:52:12;;;;;;;3.40;1.43;;;11.70;38.20;;;;;;5092442;28;20414;-51
2024/01/25 04:54:37;;;;;;;1.53;1.43;;;11.60;38.60;;;;;;5092737;28;20294;-48
2024/01/25 04:57:06;;;;;;;1.10;0.63;;;11.60;38.60;;;;;;5092932;28;20410;-47
2024/01/25 04:59:33;;;;;;;10.18;1.92;;;11.60;38.70;;;;;;5092729;28;20179;-51
2024/01/25 05:01:59;;;;;;;0.98;0.65;;;11.50;38.90;;;;;;5092658;28;20176;-47
2024/01/25 05:04:25;;;;;;;1.00;0.55;;;11.50;39.10;;;;;;5092651;28;20192;-48
2024/01/25 05:06:50;;;;;;;1.00;0.70;;;11.40;39.10;;;;;;5084531;28;20183;-49
2024/01/25 05:09:16;;;;;;;0.80;0.30;;;11.40;38.90;;;;;;5092788;28;20675;-47
2024/01/25 05:11:42;;;;;;;2.07;1.63;;;11.40;39.00;;;;;;5092053;28;20718;-50
2024/01/25 05:14:08;;;;;;;0.90;0.50;;;11.40;38.80;;;;;;5092546;28;20291;-48
2024/01/25 05:16:35;;;;;;;1.73;0.80;;;11.50;38.90;;;;;;5092664;28;20783;-49
2024/01/25 05:19:01;;;;;;;1.92;0.95;;;11.50;38.50;;;;;;5092703;28;20180;-52
2024/01/25 05:21:27;;;;;;;1.55;1.40;;;11.60;38.50;;;;;;5091868;28;20707;-47
2024/01/25 05:23:52;;;;;;;15.80;1.53;;;11.50;38.50;;;;;;5092339;28;20223;-53
2024/01/25 05:26:19;;;;;;;1.00;0.80;;;11.50;38.70;;;;;;5092505;28;20267;-47
2024/01/25 05:28:44;;;;;;;5.95;1.63;;;11.40;38.70;;;;;;5092292;28;20629;-48
2024/01/25 05:31:12;;;;;;;10.13;1.80;;;11.50;38.90;;;;;;5091843;28;20184;-50
2024/01/25 05:33:41;;;;;;;0.95;0.50;;;11.60;38.30;;;;;;5092022;28;20480;-47
2024/01/25 05:36:08;;;;;;;1.40;1.30;;;11.60;38.00;;;;;;5092360;28;20263;-53
2024/01/25 05:38:33;;;;;;;1.30;0.60;;;11.50;38.30;;;;;;5092055;28;20173;-54
2024/01/25 05:40:59;;;;;;;1.27;0.98;;;11.50;38.20;;;;;;5091688;28;20179;-45
2024/01/25 05:43:25;;;;;;;1.40;0.97;;;11.50;38.60;;;;;;5092287;28;20202;-47
2024/01/25 05:45:51;;;;;;;1.00;0.68;;;11.60;38.10;;;;;;5092211;28;20956;-45
2024/01/25 05:48:17;;;;;;;2.07;0.80;;;11.60;38.10;;;;;;5091531;28;20188;-46
2024/01/25 05:50:43;;;;;;;0.97;0.63;;;11.50;38.00;;;;;;5091757;28;20176;-52
2024/01/25 05:53:09;;;;;;;1.10;0.97;;;11.50;38.40;;;;;;5090502;28;20541;-46
2024/01/25 05:55:34;;;;;;;1.50;0.70;;;11.40;38.50;;;;;;5091839;28;20180;-51
2024/01/25 05:58:00;;;;;;;1.23;1.13;;;11.50;38.50;;;;;;5092003;28;20180;-48
2024/01/25 06:00:26;;;;;;;1.53;1.20;;;11.50;38.20;;;;;;5092107;28;20207;-49
2024/01/25 06:02:51;;;;;;;8.30;1.80;;;11.50;38.30;;;;;;5083097;28;20649;-50
2024/01/25 06:05:18;;;;;;;1.53;1.17;;;11.50;38.50;;;;;;5091812;28;20176;-47
2024/01/25 06:07:44;;;;;;;1.00;0.65;;;11.50;38.40;;;;;;5091685;28;20182;-47
2024/01/25 06:10:10;;;;;;;2.80;1.33;;;11.60;38.50;;;;;;5091905;28;20271;-50
2024/01/25 06:12:35;;;;;;;1.08;0.77;;;11.70;38.50;;;;;;5091476;28;20204;-47
2024/01/25 06:15:01;;;;;;;9.30;1.53;;;11.70;38.20;;;;;;5091700;28;20291;-48
2024/01/25 06:17:27;;;;;;;5.47;2.33;;;11.60;38.40;;;;;;5091826;28;20202;-52
2024/01/25 06:19:53;;;;;;;2.50;2.20;;;11.70;38.50;;;;;;5091790;28;20626;-53
2024/01/25 06:22:18;;;;;;;1.10;0.77;;;11.80;38.50;;;;;;5091371;28;20175;-47
2024/01/25 06:24:44;;;;;;;3.87;2.23;;;11.60;38.60;;;;;;5091656;28;20248;-50
2024/01/25 06:27:10;;;;;;;1.27;0.80;;;11.40;38.70;;;;;;5091963;28;20177;-45
2024/01/25 06:29:36;;;;;;;1.77;1.27;;;11.30;38.90;;;;;;5091716;28;20180;-48
2024/01/25 06:32:02;;;;;;;3.53;0.90;;;11.20;38.90;;;;;;5091222;28;20416;-50
2024/01/25 06:34:28;;;;;;;1.02;0.80;;;11.20;39.10;;;;;;5090924;28;20497;-46
2024/01/25 06:36:53;;;;;;;1.37;1.13;;;11.10;39.20;;;;;;5091788;28;20200;-52
2024/01/25 06:39:19;;;;;;;8.37;3.20;;;11.00;39.40;;;;;;5092037;28;20562;-47
2024/01/25 06:41:45;;;;;;;1.17;0.87;;;11.10;39.50;;;;;;5091079;28;20200;-50
2024/01/25 06:44:10;;;;;;;1.00;0.80;;;11.10;39.20;;;;;;5091397;28;20283;-56
2024/01/25 06:46:36;;;;;;;1.03;0.73;;;11.10;39.20;;;;;;5091539;28;20177;-47
2024/01/25 06:49:02;;;;;;;1.70;1.53;;;11.00;39.20;;;;;;5091483;28;20169;-48
2024/01/25 06:51:28;;;;;;;1.88;1.77;;;11.10;39.40;;;;;;5090926;28;20180;-51
2024/01/25 06:53:54;;;;;;;1.10;0.85;;;11.10;39.30;;;;;;5091250;28;20205;-49
2024/01/25 06:56:20;;;;;;;1.00;0.80;;;11.10;39.30;;;;;;5091436;28;20542;-49
2024/01/25 06:58:46;;;;;;;1.00;0.83;;;11.20;38.90;;;;;;5091679;28;20531;-52
2024/01/25 07:01:11;;;;;;;1.00;0.53;;;11.20;38.70;;;;;;5094749;28;20610;-48
2024/01/25 07:03:37;;;;;;;1.10;0.83;;;11.10;38.80;;;;;;5094973;28;20219;-46
2024/01/25 07:06:04;;;;;;;1.13;0.97;;;11.10;38.80;;;;;;5095007;28;20229;-55
2024/01/25 07:08:29;;;;;;;3.72;0.90;;;10.90;39.00;;;;;;5095246;28;20251;-47
2024/01/25 07:10:56;;;;;;;1.33;1.10;;;11.00;39.00;;;;;;5094684;28;20267;-54
2024/01/25 07:13:22;;;;;;;2.20;1.80;;;11.10;39.10;;;;;;5094898;28;20204;-54
2024/01/25 07:15:48;;;;;;;2.20;2.00;;;11.10;38.80;;;;;;5094926;28;20206;-47
2024/01/25 07:18:13;;;;;;;1.27;1.17;;;11.10;38.70;;;;;;5094894;28;20490;-50
2024/01/25 07:20:39;;;;;;;0.90;0.50;;;11.30;38.40;;;;;;5094232;28;20263;-47
2024/01/25 07:23:05;;;;;;;16.90;2.20;;;11.10;38.20;;;;;;5094846;28;20193;-52
2024/01/25 07:25:31;;;;;;;0.93;0.60;;;11.10;38.40;;;;;;5094714;28;20183;-53
2024/01/25 07:27:56;;;;;;;0.87;0.30;;;10.30;38.00;;;;;;5094763;28;20187;-46
2024/01/25 07:30:22;;;;;;;1.40;1.03;;;11.30;38.10;;;;;;5094564;28;20179;-45
2024/01/25 07:32:49;;;;;;;1.13;0.93;;;11.20;38.20;;;;;;5093792;28;20261;-51
2024/01/25 07:35:15;;;;;;;1.40;1.15;;;11.10;38.40;;;;;;5094486;28;20177;-47
2024/01/25 07:37:41;;;;;;;0.90;0.50;;;11.10;38.50;;;;;;5094446;28;20229;-47
2024/01/25 07:40:08;;;;;;;1.30;0.90;;;11.20;38.20;;;;;;5094387;28;20168;-49
2024/01/25 07:42:34;;;;;;;1.48;1.38;;;11.10;38.40;;;;;;5093754;28;20688;-51
2024/01/25 07:45:00;;;;;;;1.17;1.07;;;11.30;38.40;;;;;;5094327;28;20176;-47
2024/01/25 07:47:26;;;;;;;1.00;0.80;;;11.40;38.20;;;;;;5094346;28;20633;-47
2024/01/25 07:49:52;;;;;;;7.13;0.90;;;11.50;38.00;;;;;;5094098;28;20255;-54
2024/01/25 07:52:18;;;;;;;3.10;1.27;;;11.50;38.20;;;;;;5093670;28;20217;-53
2024/01/25 07:54:44;;;;;;;2.13;1.57;;;11.50;38.10;;;;;;5094222;28;20200;-48
2024/01/25 07:57:10;;;;;;;2.05;0.90;;;11.50;38.00;;;;;;5094124;28;20453;-54
2024/01/25 07:59:36;;;;;;;3.80;1.00;;;11.40;38.10;;;;;;5094128;28;20621;-51
2024/01/25 08:02:01;;;;;;;1.53;0.97;;;11.40;38.10;;;;;;5093796;28;20207;-53
2024/01/25 08:04:27;;;;;;;1.10;0.60;;;11.50;38.30;;;;;;5093832;28;20562;-46
2024/01/25 08:06:53;;;;;;;2.00;1.23;;;11.60;38.10;;;;;;5093882;28;20463;-54
2024/01/25 08:09:19;;;;;;;1.20;1.03;;;11.50;37.90;;;;;;5093925;28;20180;-47
2024/01/25 08:11:45;;;;;;;7.83;0.70;;;11.50;37.70;;;;;;5092628;28;20173;-50
2024/01/25 08:14:11;;;;;;;0.90;0.50;;;11.40;37.60;;;;;;5093771;28;20291;-47
2024/01/25 08:16:37;;;;;;;1.10;0.60;;;11.40;38.10;;;;;;5093706;28;20266;-54
2024/01/25 08:19:03;;;;;;;47.15;2.10;;;11.50;37.70;;;;;;5093688;28;20306;-48
2024/01/25 08:21:29;;;;;;;2.07;0.93;;;11.60;37.80;;;;;;5093080;28;20259;-53
2024/01/25 08:23:54;;;;;;;1.83;0.80;;;11.70;37.70;;;;;;5085515;28;20428;-52
2024/01/25 08:26:20;;;;;;;0.90;0.50;;;11.70;37.60;;;;;;5093577;28;20621;-48
2024/01/25 08:28:46;;;;;;;1.20;0.67;;;11.60;37.70;;;;;;5093471;28;20317;-53
2024/01/25 08:31:12;;;;;;;0.90;0.40;;;11.60;37.60;;;;;;5093002;28;20497;-46
2024/01/25 08:33:43;;;;;;;1.07;0.80;;;11.60;38.10;;;;;;5092978;28;20345;-50
2024/01/25 08:36:10;;;;;;;1.55;0.80;;;11.70;37.80;;;;;;5093666;28;20419;-45
2024/01/25 08:38:36;;;;;;;0.80;0.30;;;11.60;38.80;;;;;;5093375;28;20218;-53
2024/01/25 08:41:02;;;;;;;1.10;0.77;;;11.60;38.10;;;;;;5092896;28;20207;-48
2024/01/25 08:43:28;;;;;;;1.00;0.73;;;11.70;38.20;;;;;;5091885;28;20200;-51
2024/01/25 08:45:54;;;;;;;2.90;1.07;;;11.60;38.30;;;;;;5093167;28;20883;-47
2024/01/25 08:48:19;;;;;;;14.67;2.57;;;11.70;38.40;;;;;;5093248;28;20306;-49
2024/01/25 08:50:45;;;;;;;3.07;0.80;;;11.70;38.50;;;;;;5092458;28;20406;-52
2024/01/25 08:53:11;;;;;;;0.90;0.50;;;11.70;38.60;;;;;;5092934;28;20450;-48
2024/01/25 08:55:37;;;;;;;0.90;0.43;;;11.70;38.50;;;;;;5092917;28;20175;-49
2024/01/25 08:58:02;;;;;;;2.73;1.10;;;11.80;38.50;;;;;;5093059;28;20181;-51
2024/01/25 09:00:28;;;;;;;0.90;0.50;;;11.80;38.60;;;;;;5092866;28;20164;-50
2024/01/25 09:02:54;;;;;;;1.10;0.60;;;11.60;38.90;;;;;;5092233;28;20430;-45
2024/01/25 09:05:20;;;;;;;1.10;0.60;;;11.70;38.90;;;;;;5093007;28;20172;-49
2024/01/25 09:07:46;;;;;;;1.23;1.13;;;11.70;39.00;;;;;;5093044;28;20172;-54
2024/01/25 09:10:12;;;;;;;1.05;0.80;;;11.80;38.60;;;;;;5092964;28;20406;-48
2024/01/25 09:12:39;;;;;;;1.23;0.70;;;11.70;39.00;;;;;;5091965;28;20265;-47
2024/01/25 09:15:05;;;;;;;1.45;0.35;;;11.70;38.90;;;;;;5092889;28;20215;-54
2024/01/25 09:17:31;;;;;;;1.25;1.02;;;11.80;38.80;;;;;;5092765;28;20188;-46
2024/01/25 09:19:58;;;;;;;2.67;1.23;;;11.90;38.80;;;;;;5092635;28;20172;-47
2024/01/25 09:22:24;;;;;;;1.38;0.95;;;11.80;38.90;;;;;;5091284;28;20592;-51
2024/01/25 09:24:50;;;;;;;2.63;1.00;;;11.80;39.10;;;;;;5092185;28;20219;-46
2024/01/25 09:27:16;;;;;;;1.00;0.60;;;11.90;38.70;;;;;;5092538;28;20180;-54
2024/01/25 09:29:42;;;;;;;1.00;0.80;;;12.00;38.60;;;;;;5092290;28;20324;-56
2024/01/25 09:32:08;;;;;;;2.00;1.40;;;12.10;38.50;;;;;;5091902;28;20168;-48
2024/01/25 09:34:36;;;;;;;1.10;0.73;;;12.20;38.80;;;;;;5091979;28;20211;-54
2024/01/25 09:37:02;;;;;;;1.75;0.85;;;12.20;38.10;;;;;;5092270;28;20273;-47
2024/01/25 09:39:28;;;;;;;1.00;0.60;;;12.20;38.30;;;;;;5092285;28;20629;-54
2024/01/25 09:41:54;;;;;;;1.10;0.80;;;12.20;38.40;;;;;;5091602;28;20203;-48
2024/01/25 09:44:20;;;;;;;1.50;0.90;;;12.10;38.40;;;;;;5092063;28;20243;-55
2024/01/25 09:46:46;;;;;;;1.42;1.33;;;12.00;38.80;;;;;;5092145;28;20183;-53
2024/01/25 09:49:12;;;;;;;0.88;0.30;;;12.10;38.60;;;;;;5092167;28;20172;-47
2024/01/25 09:51:41;;;;;;;0.97;0.63;;;12.10;38.60;;;;;;5091589;28;20183;-51
2024/01/25 09:54:07;;;;;;;8.02;1.63;;;12.10;38.50;;;;;;5092077;28;20196;-53
2024/01/25 09:56:34;;;;;;;1.45;0.82;;;12.10;38.80;;;;;;5091941;28;20314;-46
2024/01/25 09:59:00;;;;;;;5.05;1.98;;;12.00;38.60;;;;;;5091963;28;20175;-55
2024/01/25 10:01:26;;;;;;;2.88;1.40;;;12.00;38.80;;;;;;5091516;28;20592;-54
2024/01/25 10:03:53;;;;;;;21.15;1.55;;;12.10;38.80;;;;;;5091918;28;20204;-47
2024/01/25 10:06:20;;;;;;;4.15;2.00;;;12.10;38.60;;;;;;5091990;28;20180;-52
2024/01/25 10:08:46;;;;;;;5.93;1.23;;;12.00;38.60;;;;;;5091821;28;20262;-46
2024/01/25 10:11:12;;;;;;;5.30;1.02;;;11.90;38.80;;;;;;5091346;28;20253;-46
2024/01/25 10:13:42;;;;;;;2.27;1.03;;;11.90;38.80;;;;;;5091478;28;20212;-51
2024/01/25 10:16:12;;;;;;;2.47;0.82;;;12.10;38.70;;;;;;5092160;28;20538;-46
2024/01/25 10:18:39;;;;;;;1.38;0.90;;;12.00;38.00;;;;;;5092044;28;20191;-50
2024/01/25 10:21:06;;;;;;;3.17;1.15;;;12.00;38.80;;;;;;5091324;28;20176;-52
2024/01/25 10:23:32;;;;;;;1.13;0.85;;;11.90;38.50;;;;;;5091796;28;20246;-49
2024/01/25 10:25:58;;;;;;;1.00;0.73;;;12.00;38.10;;;;;;5091783;28;20176;-46
2024/01/25 10:28:28;;;;;;;21.60;2.00;;;12.00;38.20;;;;;;5091824;28;20229;-49
2024/01/25 10:30:57;;;;;;;1.10;0.95;;;12.20;38.10;;;;;;5091327;28;20231;-51
2024/01/25 10:33:25;;;;;;;1.88;1.08;;;12.40;38.10;;;;;;5091441;28;20203;-46
2024/01/25 10:35:55;;;;;;;1.23;0.88;;;12.50;37.80;;;;;;5095436;28;20188;-50
2024/01/25 10:38:25;;;;;;;1.10;0.82;;;12.60;37.50;;;;;;5095607;28;20700;-48
2024/01/25 10:40:53;;;;;;;9.90;1.83;;;12.40;37.70;;;;;;5095042;28;21975;-47
2024/01/25 10:43:18;;;;;;;9.80;1.17;;;12.40;37.50;;;;;;5095469;28;20203;-48
2024/01/25 10:45:45;;;;;;;0.90;0.40;;;12.40;37.60;;;;;;5095469;28;20168;-50
2024/01/25 10:48:11;;;;;;;1.20;0.80;;;12.40;37.50;;;;;;5095731;28;20176;-49
2024/01/25 10:50:39;;;;;;;11.43;1.23;;;12.30;37.70;;;;;;5095171;28;20668;-46
2024/01/25 10:53:07;;;;;;;5.88;1.05;;;12.30;38.10;;;;;;5095080;28;20203;-56
2024/01/25 10:55:33;;;;;;;2.47;0.77;;;12.30;37.80;;;;;;5095381;28;20265;-48
2024/01/25 10:57:59;;;;;;;1.75;1.45;;;12.40;37.50;;;;;;5095507;28;20584;-50
2024/01/25 11:00:25;;;;;;;1.30;0.90;;;12.50;37.40;;;;;;5095181;28;20176;-50
2024/01/25 11:02:52;;;;;;;1.00;0.60;;;12.50;37.30;;;;;;5094481;28;20204;-50
2024/01/25 11:05:20;;;;;;;10.30;1.70;;;12.30;37.40;;;;;;5095193;28;20177;-45
2024/01/25 11:07:48;;;;;;;1.90;1.27;;;12.30;37.40;;;;;;5094967;28;20234;-49
2024/01/25 11:10:14;;;;;;;27.65;1.40;;;12.30;37.50;;;;;;5095321;28;20176;-55
2024/01/25 11:12:51;;;;;;;1.92;0.85;;;12.30;37.20;;;;;;5094297;28;20200;-47
2024/01/25 11:15:31;;;;;;;7.13;1.42;;;12.30;37.90;;;;;;5094930;28;20202;-50
2024/01/25 11:17:57;;;;;;;1.00;0.52;;;12.30;37.60;;;;;;5094912;28;20759;-48
2024/01/25 11:20:24;;;;;;;6.65;1.00;;;12.30;37.90;;;;;;5093590;28;20200;-53
2024/01/25 11:22:56;;;;;;;17.30;4.50;;;12.40;37.70;;;;;;5094200;28;20246;-54
2024/01/25 11:25:22;;;;;;;2.10;1.90;;;12.40;37.60;;;;;;5094727;28;20172;-48
2024/01/25 11:27:51;;;;;;;8.83;0.90;;;12.40;37.70;;;;;;5094584;28;20187;-49
2024/01/25 11:30:20;;;;;;;1.25;1.15;;;12.40;37.50;;;;;;5094704;28;20414;-50
2024/01/25 11:32:49;;;;;;;3.65;2.28;;;12.50;37.90;;;;;;5093481;28;20236;-47
2024/01/25 11:35:19;;;;;;;1.85;1.02;;;12.50;37.70;;;;;;5094543;28;20168;-56
2024/01/25 11:37:46;;;;;;;2.97;1.60;;;12.40;37.70;;;;;;5094474;28;20187;-47
2024/01/25 11:40:13;;;;;;;1.08;0.80;;;12.40;37.90;;;;;;5094446;28;20674;-55
2024/01/25 11:42:39;;;;;;;1.30;1.08;;;12.50;37.80;;;;;;5093882;28;20250;-53
2024/01/25 11:45:12;;;;;;;1.00;0.70;;;12.50;38.00;;;;;;5093760;28;20200;-48
2024/01/25 11:47:39;;;;;;;1.42;0.93;;;12.50;37.80;;;;;;5093742;28;20265;-47
2024/01/25 11:50:09;;;;;;;6.18;0.73;;;12.50;37.70;;;;;;5094335;28;20183;-49
2024/01/25 11:52:35;;;;;;;1.27;1.17;;;12.50;37.70;;;;;;5093653;28;20200;-48
2024/01/25 11:55:09;;;;;;;0.93;0.55;;;12.60;37.20;;;;;;5094177;28;20181;-47
2024/01/25 11:57:42;;;;;;;1.00;0.70;;;12.80;36.40;;;;;;5094107;28;20172;-52
2024/01/25 12:00:14;;;;;;;7.30;1.08;;;13.00;37.70;;;;;;5094154;28;20181;-48
2024/01/25 12:02:41;;;;;;;15.88;1.55;;;13.30;37.20;;;;;;5093497;28;20184;-48
2024/01/25 12:05:09;;;;;;;1.10;0.70;;;13.40;35.40;;;;;;5093821;28;20180;-53
2024/01/25 12:07:36;;;;;;;5.65;1.20;;;13.50;35.20;;;;;;5094184;28;20587;-49
2024/01/25 12:10:07;;;;;;;1.00;0.50;;;13.50;34.20;;;;;;5093945;28;20176;-46
2024/01/25 12:12:34;;;;;;;0.90;0.40;;;13.40;34.30;;;;;;5093435;28;20204;-50
2024/01/25 12:15:03;;;;;;;1.10;0.70;;;13.30;34.40;;;;;;5094018;28;20184;-55
2024/01/25 12:17:29;;;;;;;0.85;0.30;;;13.10;35.20;;;;;;5093781;28;20169;-48
2024/01/25 12:19:59;;;;;;;19.52;1.02;;;13.10;34.90;;;;;;5093653;28;20261;-49
2024/01/25 12:22:28;;;;;;;1.40;0.70;;;13.00;35.00;;;;;;5093066;28;20638;-54
2024/01/25 12:24:54;;;;;;;1.40;1.27;;;13.00;35.50;;;;;;5093279;28;20221;-46
2024/01/25 12:27:25;;;;;;;1.00;0.70;;;13.10;35.90;;;;;;5093579;28;20172;-46
2024/01/25 12:29:53;;;;;;;2.22;0.80;;;13.20;36.00;;;;;;5093531;28;20218;-54
2024/01/25 12:32:22;;;;;;;1.00;0.70;;;13.20;36.00;;;;;;5092880;28;20181;-54
2024/01/25 12:34:55;;;;;;;11.77;0.98;;;13.20;36.10;;;;;;5093241;28;20200;-48
2024/01/25 12:37:21;;;;;;;1.77;1.67;;;13.00;36.10;;;;;;5093581;28;20195;-55
2024/01/25 12:39:46;;;;;;;2.93;0.70;;;12.90;36.50;;;;;;5093357;28;20599;-54